ADDS METAR Data INFO
IDs: Format: Raw Decoded Include TAF

Data at: 1134 UTC 17 Jul 2018

KIAH 171053Z 23003KT 7SM FEW015 SCT250 26/25 A3005 RMK AO2 SLP174 T02560250 $